Time;durP1;ratioP1;P1;durP2;ratioP2;P2;SDS_P1;SDS_P2;PMS_P1;PMS_P2;Temp;Humidity;BMP_temperature;BMP_pressure;BME280_temperature;BME280_humidity;BME280_pressure;Samples;Min_cycle;Max_cycle;Signal;HPM_P1;HPM_P2
2021/04/12 00:00:40;;;;;;;20.20;10.03;;;;;;;3.16;56.68;100538.44;1769045;79;21635;-59
2021/04/12 00:03:31;;;;;;;18.00;10.00;;;;;;;3.16;56.68;100552.18;1773132;79;21391;-59
2021/04/12 00:06:22;;;;;;;21.47;11.20;;;;;;;3.14;56.54;100552.66;1801707;77;21172;-59
2021/04/12 00:09:03;;;;;;;20.47;10.47;;;;;;;3.12;56.46;100552.66;1768377;79;21961;-59
2021/04/12 00:11:47;;;;;;;15.53;9.37;;;;;;;3.11;56.24;100548.67;1865005;74;26913;-59
2021/04/12 00:14:28;;;;;;;20.90;10.97;;;;;;;3.04;56.19;100553.16;1778816;78;21161;-59
2021/04/12 00:17:02;;;;;;;18.13;11.47;;;;;;;3.03;56.99;100552.27;1800416;77;21441;-59
2021/04/12 00:19:54;;;;;;;24.47;11.73;;;;;;;3.06;57.32;100551.82;1784139;78;21119;-59
2021/04/12 00:22:40;;;;;;;20.77;10.77;;;;;;;3.09;57.42;100551.34;1780475;78;21505;-59
2021/04/12 00:25:12;;;;;;;20.07;10.53;;;;;;;3.08;57.52;100544.25;1782512;78;21407;-59
2021/04/12 00:27:57;;;;;;;23.73;10.73;;;;;;;3.06;57.81;100549.16;1758417;78;21024;-59
2021/04/12 00:30:49;;;;;;;21.50;11.70;;;;;;;3.01;57.65;100544.73;1780459;78;21369;-59
2021/04/12 00:33:27;;;;;;;27.03;12.27;;;;;;;2.99;57.36;100540.30;1720498;78;20984;-59
2021/04/12 00:36:11;;;;;;;22.27;11.93;;;;;;;2.93;56.88;100539.02;1780987;78;20996;-59
2021/04/12 00:38:57;;;;;;;21.23;10.60;;;;;;;2.88;56.92;100536.39;1813247;76;26873;-59
2021/04/12 00:41:36;;;;;;;18.57;10.73;;;;;;;2.78;57.14;100543.08;1785706;78;21183;-59
2021/04/12 00:44:12;;;;;;;18.83;11.30;;;;;;;2.73;57.24;100551.05;1786087;78;22378;-59
2021/04/12 00:46:58;;;;;;;19.30;11.93;;;;;;;2.71;57.35;100544.00;1783579;78;21139;-59
2021/04/12 00:49:59;;;;;;;19.83;12.90;;;;;;;2.67;57.29;100544.44;1779422;78;21251;-59
2021/04/12 00:52:58;;;;;;;19.93;11.10;;;;;;;2.64;57.19;100543.11;1784294;78;21565;-59
2021/04/12 00:55:40;;;;;;;27.17;12.50;;;;;;;2.61;57.22;100539.16;1780725;78;21179;-59
2021/04/12 00:58:37;;;;;;;24.30;12.17;;;;;;;2.61;57.08;100540.48;1763718;78;22565;-59
2021/04/12 01:01:33;;;;;;;22.30;12.83;;;;;;;2.61;57.17;100539.16;1784303;78;21001;-60
2021/04/12 01:04:52;;;;;;;24.00;13.83;;;;;;;2.62;57.19;100536.94;1783476;78;21175;-60
2021/04/12 01:07:45;;;;;;;24.13;12.20;;;;;;;2.59;57.13;100537.83;1733859;80;21223;-60
2021/04/12 01:10:54;;;;;;;27.50;13.63;;;;;;;2.54;56.79;100534.31;1788667;78;21178;-60
2021/04/12 01:14:01;;;;;;;21.50;11.80;;;;;;;2.51;56.95;100530.77;1787172;78;21210;-59
2021/04/12 01:16:46;;;;;;;19.63;11.30;;;;;;;2.51;57.25;100536.97;1769381;79;21653;-58
2021/04/12 01:20:04;;;;;;;22.63;13.13;;;;;;;2.50;57.58;100534.31;1776207;77;21149;-59
2021/04/12 01:23:20;;;;;;;25.67;13.73;;;;;;;2.48;57.84;100526.34;1775757;77;21209;-59
2021/04/12 01:26:34;;;;;;;23.10;13.15;;;;;;;2.42;57.67;100524.16;1778557;77;21848;-58
2021/04/12 01:29:49;;;;;;;25.70;12.50;;;;;;;2.35;57.68;100518.42;1666677;83;21224;-58
2021/04/12 01:32:45;;;;;;;18.00;11.07;;;;;;;2.34;57.83;100516.21;1666570;83;21217;-57
2021/04/12 01:36:08;;;;;;;23.17;12.27;;;;;;;2.34;58.33;100514.87;1672044;83;21494;-58
2021/04/12 01:38:39;;;;;;;22.03;12.03;;;;;;;2.35;59.02;100511.34;1673954;83;21676;-58
2021/04/12 01:41:26;;;;;;;22.43;12.83;;;;;;;2.40;59.43;100502.89;1675105;82;21497;-57
2021/04/12 01:44:17;;;;;;;26.13;12.73;;;;;;;2.41;59.42;100492.71;1700210;81;21452;-57
2021/04/12 01:47:31;;;;;;;18.83;11.33;;;;;;;2.44;59.53;100498.47;1697774;81;21146;-58
2021/04/12 01:50:25;;;;;;;21.63;13.37;;;;;;;2.44;59.49;100501.13;1694518;81;21010;-58
2021/04/12 01:53:12;;;;;;;27.10;13.90;;;;;;;2.44;59.49;100495.81;1693256;81;21598;-58
2021/04/12 01:56:32;;;;;;;30.72;17.02;;;;;;;2.41;59.46;100482.53;1671513;83;21422;-59
2021/04/12 01:59:18;;;;;;;30.90;15.83;;;;;;;2.35;59.27;100482.55;1669328;83;21273;-57
2021/04/12 02:02:23;;;;;;;24.80;15.17;;;;;;;2.27;59.08;100475.50;1665060;83;22156;-57
2021/04/12 02:05:11;;;;;;;30.87;16.33;;;;;;;2.26;58.87;100476.83;1664558;83;21204;-59
2021/04/12 02:08:00;;;;;;;29.80;16.47;;;;;;;2.23;59.10;100469.74;1671800;83;21173;-57
2021/04/12 02:10:51;;;;;;;24.13;15.57;;;;;;;2.25;59.30;100479.92;1660693;84;21485;-58
2021/04/12 02:14:12;;;;;;;30.10;17.03;;;;;;;2.28;59.36;100471.08;1674058;83;22833;-57
2021/04/12 02:16:45;;;;;;;28.63;16.63;;;;;;;2.31;59.40;100468.83;1675754;83;21608;-56
2021/04/12 02:19:51;;;;;;;30.60;18.77;;;;;;;2.35;59.36;100467.95;1662263;83;21177;-56
2021/04/12 02:22:52;;;;;;;30.77;19.30;;;;;;;2.35;59.34;100469.27;1674890;83;21776;-57
2021/04/12 02:25:40;;;;;;;37.13;22.87;;;;;;;2.34;59.27;100470.16;1672903;83;21128;-57
2021/04/12 02:28:59;;;;;;;36.50;22.40;;;;;;;2.27;58.86;100470.19;1644289;84;21440;-56
2021/04/12 02:31:44;;;;;;;35.10;20.57;;;;;;;2.21;58.53;100468.00;1708442;81;21210;-56
2021/04/12 02:34:34;;;;;;;41.58;23.20;;;;;;;2.13;58.48;100469.33;1712083;81;21194;-57
2021/04/12 02:37:25;;;;;;;36.10;20.90;;;;;;;2.07;58.49;100469.80;1710293;81;21186;-56
2021/04/12 02:40:21;;;;;;;37.87;23.40;;;;;;;2.02;58.35;100467.61;1680238;83;21226;-58
2021/04/12 02:43:10;;;;;;;34.93;20.67;;;;;;;1.97;58.42;100467.59;1664414;84;22682;-56
2021/04/12 02:46:05;;;;;;;36.00;21.97;;;;;;;1.92;58.58;100461.43;1665215;84;21222;-57
2021/04/12 02:49:03;;;;;;;36.70;21.93;;;;;;;1.93;58.80;100463.64;1663853;84;22142;-55
2021/04/12 02:51:39;;;;;;;39.97;21.13;;;;;;;1.93;58.94;100457.89;1635711;84;21187;-57
2021/04/12 02:54:43;;;;;;;35.93;22.07;;;;;;;1.93;58.98;100457.89;1673988;83;21559;-57
2021/04/12 02:58:04;;;;;;;43.65;21.62;;;;;;;1.94;59.05;100451.70;1711997;81;21744;-55
2021/04/12 03:00:54;;;;;;;37.13;22.50;;;;;;;1.94;59.09;100449.48;1710312;81;21242;-57
2021/04/12 03:03:58;;;;;;;37.63;23.50;;;;;;;1.95;59.19;100445.50;1706623;81;21496;-57
2021/04/12 03:07:03;;;;;;;42.33;25.70;;;;;;;1.93;59.23;100441.08;1699769;81;21205;-56
2021/04/12 03:10:09;;;;;;;36.53;22.77;;;;;;;1.88;59.22;100439.30;1708909;81;21723;-57
2021/04/12 03:13:05;;;;;;;41.47;24.40;;;;;;;1.83;59.29;100437.55;1708992;81;21998;-57
2021/04/12 03:15:55;;;;;;;39.67;23.30;;;;;;;1.82;59.33;100430.03;1711261;81;21207;-58
2021/04/12 03:18:47;;;;;;;39.73;23.67;;;;;;;1.82;59.35;100434.45;1673393;83;22010;-58
2021/04/12 03:21:42;;;;;;;37.40;22.90;;;;;;;1.82;59.50;100428.70;1712486;81;21194;-57
2021/04/12 03:24:23;;;;;;;38.42;23.60;;;;;;;1.82;59.62;100424.72;1710554;81;21652;-56
2021/04/12 03:27:28;;;;;;;38.83;21.70;;;;;;;1.81;59.69;100436.66;1711679;81;21388;-57
2021/04/12 03:30:25;;;;;;;37.17;22.63;;;;;;;1.79;59.72;100430.02;1715907;81;21495;-57
2021/04/12 03:33:36;;;;;;;38.77;22.03;;;;;;;1.76;59.80;100430.05;1679760;83;21202;-56
2021/04/12 03:36:12;;;;;;;33.70;21.13;;;;;;;1.78;60.13;100433.59;1636320;83;21233;-58
2021/04/12 03:39:07;;;;;;;45.20;23.83;;;;;;;1.82;60.33;100433.13;1712832;81;21246;-58
2021/04/12 03:42:07;;;;;;;36.70;20.93;;;;;;;1.82;60.36;100425.16;1712104;81;21202;-56
2021/04/12 03:45:06;;;;;;;40.93;23.60;;;;;;;1.82;60.39;100429.14;1712749;81;22305;-58
2021/04/12 03:48:00;;;;;;;42.13;22.40;;;;;;;1.80;60.38;100430.47;1676127;83;21209;-55
2021/04/12 03:51:11;;;;;;;38.43;21.70;;;;;;;1.80;60.46;100428.26;1711450;81;21216;-58
2021/04/12 03:54:18;;;;;;;38.90;22.40;;;;;;;1.81;60.55;100423.39;1712378;81;21626;-56
2021/04/12 03:57:11;;;;;;;40.57;21.93;;;;;;;1.84;60.70;100424.72;1714151;81;21411;-56
2021/04/12 04:00:05;;;;;;;33.37;21.10;;;;;;;1.85;60.68;100420.74;1710348;81;21859;-58
2021/04/12 04:02:56;;;;;;;37.42;22.82;;;;;;;1.89;60.75;100417.62;1674159;83;28082;-55
2021/04/12 04:05:55;;;;;;;41.67;23.40;;;;;;;1.92;61.02;100416.30;1708893;81;21198;-57
2021/04/12 04:09:03;;;;;;;36.17;21.30;;;;;;;1.94;61.04;100414.53;1718006;81;21134;-56
2021/04/12 04:12:14;;;;;;;38.00;23.60;;;;;;;1.95;61.00;100420.72;1714383;81;22797;-56
2021/04/12 04:15:08;;;;;;;38.40;21.50;;;;;;;2.00;61.24;100418.92;1711687;81;21242;-55
2021/04/12 04:18:08;;;;;;;45.13;21.17;;;;;;;2.08;61.32;100418.02;1714356;81;21175;-57
2021/04/12 04:20:53;;;;;;;44.40;23.03;;;;;;;2.19;61.58;100413.55;1690866;81;21205;-56
2021/04/12 04:23:47;;;;;;;35.87;20.60;;;;;;;2.32;61.66;100409.50;1712080;81;21206;-54
2021/04/12 04:27:02;;;;;;;42.90;20.97;;;;;;;2.46;61.77;100411.22;1688252;81;21727;-54
2021/04/12 04:29:55;;;;;;;37.57;20.33;;;;;;;2.60;61.99;100421.77;1681845;83;21681;-56
2021/04/12 04:32:57;;;;;;;33.70;20.90;;;;;;;2.74;62.04;100413.26;1719882;81;22317;-59
2021/04/12 04:35:50;;;;;;;40.03;23.37;;;;;;;2.83;62.00;100412.31;1720675;81;21603;-57
2021/04/12 04:38:54;;;;;;;43.00;22.17;;;;;;;2.87;61.90;100406.98;1721014;81;21189;-58
2021/04/12 04:41:58;;;;;;;39.93;22.37;;;;;;;2.93;61.94;100412.70;1683268;83;21258;-57
2021/04/12 04:44:51;;;;;;;38.63;23.37;;;;;;;2.97;61.70;100407.81;1721923;81;21879;-58
2021/04/12 04:47:44;;;;;;;34.03;20.87;;;;;;;3.07;61.75;100405.94;1720592;81;21253;-57
2021/04/12 04:50:41;;;;;;;35.30;20.27;;;;;;;3.20;61.66;100404.52;1718780;81;21166;-58
2021/04/12 04:53:35;;;;;;;34.73;21.60;;;;;;;3.32;61.56;100408.39;1684481;83;21528;-57
2021/04/12 04:56:38;;;;;;;30.85;20.30;;;;;;;3.49;61.61;100404.73;1715187;81;21392;-58
2021/04/12 05:00:04;;;;;;;35.87;22.43;;;;;;;3.65;61.48;100405.01;1717287;81;21227;-57
2021/04/12 05:02:57;;;;;;;32.65;21.25;;;;;;;3.80;61.35;100403.06;1726587;81;25547;-58
2021/04/12 05:05:48;;;;;;;35.93;22.20;;;;;;;3.97;61.87;100399.34;1727624;81;21104;-58
2021/04/12 05:08:42;;;;;;;31.87;18.93;;;;;;;4.11;62.18;100390.27;1698859;82;21099;-58
2021/04/12 05:11:44;;;;;;;29.87;19.77;;;;;;;4.29;62.52;100389.62;1700929;82;21541;-58
2021/04/12 05:14:25;;;;;;;27.27;17.50;;;;;;;4.47;62.83;100381.38;1724335;81;21557;-58
2021/04/12 05:17:26;;;;;;;31.83;18.53;;;;;;;4.67;63.15;100386.00;1716563;81;20994;-59
2021/04/12 05:20:30;;;;;;;25.13;17.37;;;;;;;4.85;63.29;100371.03;1693369;82;21135;-58
2021/04/12 05:23:33;;;;;;;39.83;20.93;;;;;;;5.07;63.13;100368.05;1728255;81;21241;-58
2021/04/12 05:26:15;;;;;;;40.00;23.83;;;;;;;5.27;62.77;100358.78;1693041;82;21237;-59
2021/04/12 05:29:17;;;;;;;50.30;29.33;;;;;;;5.51;61.32;100359.28;1691392;82;21772;-58
2021/04/12 05:32:15;;;;;;;63.07;38.40;;;;;;;5.71;60.14;100348.64;1691665;82;21352;-58
2021/04/12 05:35:00;;;;;;;64.57;41.07;;;;;;;6.00;58.42;100348.56;1724098;81;21132;-58
2021/04/12 05:38:24;;;;;;;71.07;42.55;;;;;;;6.28;57.21;100355.56;1722573;81;21192;-58
2021/04/12 05:41:00;;;;;;;72.60;40.77;;;;;;;6.52;56.40;100341.66;1723432;81;21250;-59
2021/04/12 05:43:54;;;;;;;67.40;39.43;;;;;;;6.80;55.00;100337.89;1697559;82;21211;-59
2021/04/12 05:46:59;;;;;;;67.17;35.93;;;;;;;7.02;54.47;100332.89;1694916;82;21191;-59
2021/04/12 05:49:48;;;;;;;64.85;37.05;;;;;;;7.27;53.93;100330.02;1698800;82;21165;-58
2021/04/12 05:52:57;;;;;;;66.63;34.20;;;;;;;7.48;53.60;100330.81;1668188;84;21229;-59
2021/04/12 05:56:14;;;;;;;67.73;33.00;;;;;;;7.68;53.25;100330.72;1691116;82;22129;-59
2021/04/12 05:59:02;;;;;;;63.00;30.63;;;;;;;7.86;52.30;100332.44;1692093;82;21218;-58
2021/04/12 06:01:52;;;;;;;56.07;29.53;;;;;;;8.09;51.14;100320.16;1651734;84;21285;-59
2021/04/12 06:04:57;;;;;;;55.47;28.87;;;;;;;8.28;50.79;100330.78;1681587;83;21592;-60
2021/04/12 06:08:04;;;;;;;54.70;26.77;;;;;;;8.47;50.26;100328.00;1656927;84;21117;-59
2021/04/12 06:10:48;;;;;;;47.53;27.10;;;;;;;8.68;49.25;100326.44;1682725;83;21202;-59
2021/04/12 06:13:40;;;;;;;45.50;27.70;;;;;;;8.88;49.02;100326.70;1644147;84;21291;-59
2021/04/12 06:16:40;;;;;;;55.60;30.37;;;;;;;9.04;48.50;100323.04;1662207;84;21235;-59
2021/04/12 06:19:46;;;;;;;55.80;30.20;;;;;;;9.19;47.38;100315.81;1640345;84;21235;-60
2021/04/12 06:22:28;;;;;;;63.07;34.37;;;;;;;9.35;47.21;100316.20;1666953;84;21145;-60
2021/04/12 06:25:33;;;;;;;56.50;33.03;;;;;;;9.49;46.08;100308.52;1663955;84;22015;-59
2021/04/12 06:28:41;;;;;;;69.10;34.95;;;;;;;9.61;46.61;100308.08;1663297;84;21251;-60
2021/04/12 06:31:52;;;;;;;52.00;28.67;;;;;;;9.74;45.14;100308.53;1665236;84;22364;-59
2021/04/12 06:35:05;;;;;;;53.67;28.63;;;;;;;9.88;44.07;100299.48;1661011;84;21608;-59
2021/04/12 06:37:53;;;;;;;45.37;23.70;;;;;;;10.02;44.03;100306.59;1666777;84;21608;-59
2021/04/12 06:41:10;;;;;;;36.73;22.40;;;;;;;10.28;43.96;100302.08;1865932;75;27036;-60
2021/04/12 06:44:07;;;;;;;37.37;21.50;;;;;;;10.40;42.93;100303.81;1809069;78;21162;-58
2021/04/12 06:47:12;;;;;;;41.73;21.53;;;;;;;10.61;42.45;100307.03;1746056;78;21456;-58
2021/04/12 06:50:20;;;;;;;39.37;22.93;;;;;;;10.80;42.78;100298.22;1750042;78;21188;-58
2021/04/12 06:53:25;;;;;;;37.07;21.53;;;;;;;11.00;42.29;100290.18;1809967;78;21178;-58
2021/04/12 06:56:02;;;;;;;26.87;15.67;;;;;;;11.20;42.46;100286.66;1809785;78;21028;-59
2021/04/12 06:58:49;;;;;;;27.03;14.03;;;;;;;11.37;41.68;100279.61;1809624;78;21175;-60
2021/04/12 07:01:37;;;;;;;26.57;14.47;;;;;;;11.51;39.10;100279.00;1811842;77;21433;-59
2021/04/12 07:04:35;;;;;;;24.60;15.03;;;;;;;11.60;39.59;100277.72;1807974;78;21206;-60
2021/04/12 07:07:51;;;;;;;20.50;12.80;;;;;;;11.73;38.75;100266.81;1863089;75;23207;-61
2021/04/12 07:10:52;;;;;;;27.15;14.47;;;;;;;11.75;37.60;100273.90;1833890;76;21190;-60
2021/04/12 07:13:49;;;;;;;19.23;11.70;;;;;;;11.80;38.19;100263.39;1838894;76;21116;-60
2021/04/12 07:16:51;;;;;;;18.33;11.47;;;;;;;11.88;37.62;100270.66;1777902;78;21604;-60
2021/04/12 07:20:06;;;;;;;22.47;14.10;;;;;;;11.96;37.00;100267.14;1838833;76;21048;-59
2021/04/12 07:23:09;;;;;;;18.73;11.63;;;;;;;12.01;37.19;100259.23;1837498;76;21613;-60
2021/04/12 07:26:34;;;;;;;18.20;11.70;;;;;;;12.12;37.76;100253.34;1839467;76;21622;-60
2021/04/12 07:29:39;;;;;;;21.60;11.00;;;;;;;12.24;37.70;100251.44;1744127;80;21008;-61
2021/04/12 07:32:36;;;;;;;14.23;10.13;;;;;;;12.40;35.77;100257.86;1778970;78;21007;-60
2021/04/12 07:35:44;;;;;;;21.57;12.03;;;;;;;12.49;36.06;100247.09;1753709;79;20999;-60
2021/04/12 07:38:45;;;;;;;20.53;11.97;;;;;;;12.59;36.40;100242.12;1760593;78;21119;-59
2021/04/12 07:42:09;;;;;;;15.80;9.47;;;;;;;12.69;35.09;100242.05;1760497;79;21193;-59
2021/04/12 07:44:59;;;;;;;15.23;8.63;;;;;;;12.77;34.02;100237.14;1724164;81;21343;-59
2021/04/12 07:47:54;;;;;;;15.43;8.03;;;;;;;12.82;34.76;100233.28;1710200;81;21141;-59
2021/04/12 07:51:02;;;;;;;13.47;7.57;;;;;;;12.89;33.07;100234.72;1753407;80;21184;-60
2021/04/12 07:53:56;;;;;;;14.50;7.83;;;;;;;12.96;32.93;100220.89;1750741;79;21118;-60
2021/04/12 07:56:54;;;;;;;14.70;9.23;;;;;;;13.06;33.03;100220.83;1751910;80;21134;-59
2021/04/12 08:00:10;;;;;;;16.12;9.35;;;;;;;13.16;33.47;100220.33;1745630;79;21372;-60
2021/04/12 08:02:58;;;;;;;10.83;7.67;;;;;;;13.29;32.75;100215.61;1754111;79;21644;-60
2021/04/12 08:05:58;;;;;;;13.28;7.67;;;;;;;13.39;31.81;100214.19;1731367;81;20945;-60
2021/04/12 08:08:53;;;;;;;9.43;6.78;;;;;;;13.52;32.17;100212.60;1731798;81;21146;-60
2021/04/12 08:11:50;;;;;;;16.70;7.42;;;;;;;13.64;31.29;100208.75;1749460;80;21123;-60
2021/04/12 08:14:42;;;;;;;9.65;6.40;;;;;;;13.78;29.80;100203.94;1751284;80;22112;-59
2021/04/12 08:18:00;;;;;;;11.18;6.42;;;;;;;13.87;29.29;100203.44;1745258;79;21206;-60
2021/04/12 08:20:59;;;;;;;11.85;6.75;;;;;;;13.91;28.85;100197.39;1756720;79;22095;-61
2021/04/12 08:24:23;;;;;;;14.25;8.38;;;;;;;13.93;28.57;100191.42;1748758;80;21449;-60
2021/04/12 08:27:25;;;;;;;9.95;7.87;;;;;;;13.94;29.39;100186.41;1745631;80;21201;-61
2021/04/12 08:30:28;;;;;;;12.40;8.50;;;;;;;14.06;28.56;100192.95;1738844;81;21379;-61
2021/04/12 08:33:27;;;;;;;13.53;8.48;;;;;;;14.14;28.04;100198.34;1736734;81;21190;-61
2021/04/12 08:36:18;;;;;;;12.23;8.55;;;;;;;14.11;28.19;100186.35;1729703;81;21181;-61
2021/04/12 08:38:57;;;;;;;14.38;8.10;;;;;;;14.10;29.01;100191.84;1732231;81;21126;-61
2021/04/12 08:41:40;;;;;;;15.70;8.45;;;;;;;14.10;28.93;100195.43;1759781;80;21111;-61
2021/04/12 08:44:42;;;;;;;13.70;8.45;;;;;;;14.07;28.91;100190.17;1729956;81;22542;-60
2021/04/12 08:47:51;;;;;;;13.88;7.30;;;;;;;14.01;29.39;100181.05;1747620;80;21846;-59
2021/04/12 08:52:31;;;;;;;18.37;8.73;;;;;;;14.03;29.86;100164.73;1794076;78;22705;-60
2021/04/12 08:55:27;;;;;;;11.63;7.22;;;;;;;13.96;29.81;100164.17;1763093;79;21207;-60
2021/04/12 08:58:21;;;;;;;13.10;7.15;;;;;;;13.90;30.04;100153.70;1709306;81;21383;-61
2021/04/12 09:01:27;;;;;;;14.85;6.80;;;;;;;13.85;30.25;100156.67;1708547;83;21198;-59
2021/04/12 09:04:12;;;;;;;13.30;6.28;;;;;;;13.83;31.21;100155.87;1745761;81;21840;-60
2021/04/12 09:07:27;;;;;;;12.15;6.92;;;;;;;13.85;31.32;100157.15;1725375;81;21134;-60
2021/04/12 09:10:48;;;;;;;11.40;5.55;;;;;;;13.90;31.47;100151.87;1720716;81;21011;-59
2021/04/12 09:13:54;;;;;;;15.10;7.72;;;;;;;13.96;31.56;100151.99;1737592;81;21440;-61
2021/04/12 09:17:02;;;;;;;12.37;7.55;;;;;;;13.96;31.61;100149.29;1641672;85;21659;-61
2021/04/12 09:20:11;;;;;;;9.78;7.22;;;;;;;13.88;31.76;100151.07;1640715;85;21251;-61
2021/04/12 09:23:16;;;;;;;15.18;6.45;;;;;;;13.80;31.86;100138.92;1639050;85;21226;-60
2021/04/12 09:26:40;;;;;;;10.48;5.97;;;;;;;13.71;32.10;100132.19;1641337;85;21634;-60
2021/04/12 09:29:43;;;;;;;13.32;3.65;;;;;;;13.64;31.92;100132.13;1642267;85;21627;-60
2021/04/12 09:32:45;;;;;;;35.15;7.08;;;;;;;13.55;31.36;100121.34;1615825;86;22545;-60
2021/04/12 09:35:49;;;;;;;14.20;3.87;;;;;;;13.52;31.84;100118.83;1604801;86;21233;-61
2021/04/12 09:38:58;;;;;;;6.78;2.47;;;;;;;13.46;31.37;100119.13;1615614;86;21115;-60
2021/04/12 09:42:02;;;;;;;18.27;2.05;;;;;;;13.43;30.60;100114.39;1613839;86;21531;-61
2021/04/12 09:45:08;;;;;;;28.15;2.37;;;;;;;13.39;29.88;100111.44;1603259;87;21846;-61
2021/04/12 09:48:10;;;;;;;3.72;3.08;;;;;;;13.36;30.11;100110.24;1639092;85;21224;-60
2021/04/12 09:51:09;;;;;;;11.68;3.70;;;;;;;13.32;30.29;100101.44;1638579;85;21565;-61
2021/04/12 09:53:57;;;;;;;12.03;4.30;;;;;;;13.31;30.41;100105.58;1619364;85;21240;-61
2021/04/12 09:57:11;;;;;;;6.72;2.52;;;;;;;13.32;30.65;100104.14;1612707;86;21506;-60
2021/04/12 10:00:21;;;;;;;7.67;1.98;;;;;;;13.30;29.87;100091.66;1604710;87;21786;-59
2021/04/12 10:03:12;;;;;;;8.63;3.83;;;;;;;13.28;30.46;100092.20;1597546;85;21216;-60
2021/04/12 10:06:27;;;;;;;4.65;2.92;;;;;;;13.29;30.76;100089.42;1633500;85;21203;-59
2021/04/12 10:09:41;;;;;;;8.05;5.58;;;;;;;13.30;30.86;100084.89;1639991;85;21676;-60
2021/04/12 10:12:40;;;;;;;16.97;7.53;;;;;;;13.28;32.35;100083.63;1634667;85;21128;-60
2021/04/12 10:15:21;;;;;;;13.88;8.38;;;;;;;13.30;33.15;100083.55;1640437;85;21770;-60
2021/04/12 10:18:11;;;;;;;17.32;8.40;;;;;;;13.31;33.35;100078.06;1639948;86;21287;-60
2021/04/12 10:20:49;;;;;;;14.70;7.15;;;;;;;13.33;33.33;100080.69;1641370;86;21223;-63
2021/04/12 10:23:22;;;;;;;20.27;8.43;;;;;;;13.34;33.19;100084.66;1643951;86;21132;-62
2021/04/12 10:26:12;;;;;;;15.85;8.70;;;;;;;13.34;33.06;100084.66;1644161;86;21034;-63
2021/04/12 10:28:47;;;;;;;14.55;7.40;;;;;;;13.33;33.03;100076.16;1645565;86;21634;-63
2021/04/12 10:31:40;;;;;;;12.25;7.60;;;;;;;13.31;33.33;100075.83;1642444;86;21168;-63
2021/04/12 10:34:17;;;;;;;14.53;7.83;;;;;;;13.31;33.23;100076.71;1643700;86;21010;-63
2021/04/12 10:37:07;;;;;;;11.90;6.80;;;;;;;13.31;33.43;100072.66;1641886;86;21676;-59
2021/04/12 10:40:08;;;;;;;13.43;6.22;;;;;;;13.33;33.67;100073.93;1641684;86;21132;-60
2021/04/12 10:42:49;;;;;;;12.30;6.58;;;;;;;13.33;33.67;100073.93;1641739;86;22265;-59
2021/04/12 10:45:28;;;;;;;16.40;5.75;;;;;;;13.29;34.02;100066.45;1641362;86;21183;-60
2021/04/12 10:48:05;;;;;;;14.25;6.75;;;;;;;13.30;34.14;100071.37;1645903;86;21143;-60
2021/04/12 10:51:07;;;;;;;11.28;6.33;;;;;;;13.30;34.31;100068.20;1624196;87;21563;-60
2021/04/12 10:53:50;;;;;;;10.98;6.58;;;;;;;13.27;34.36;100067.00;1624763;87;21798;-59
2021/04/12 10:56:39;;;;;;;11.75;7.30;;;;;;;13.27;34.68;100070.22;1616463;87;21412;-60
2021/04/12 10:59:56;;;;;;;18.65;7.30;;;;;;;13.25;34.95;100064.89;1615585;87;21159;-60
2021/04/12 11:03:02;;;;;;;15.60;6.40;;;;;;;13.26;35.31;100066.64;1586932;88;21179;-57
2021/04/12 11:05:30;;;;;;;12.95;4.87;;;;;;;13.29;35.37;100072.33;1620961;87;21135;-59
2021/04/12 11:08:18;;;;;;;12.35;5.33;;;;;;;13.32;36.08;100072.18;1619621;87;21157;-60
2021/04/12 11:11:18;;;;;;;7.50;5.00;;;;;;;13.34;36.43;100072.98;1617187;87;22047;-58
2021/04/12 11:13:58;;;;;;;14.30;5.22;;;;;;;13.36;36.39;100072.39;1617772;87;21665;-60
2021/04/12 11:16:44;;;;;;;9.43;4.90;;;;;;;13.34;37.24;100068.44;1597619;88;21176;-60
2021/04/12 11:19:21;;;;;;;14.50;5.57;;;;;;;13.32;37.81;100070.35;1635125;85;21738;-60
2021/04/12 11:22:23;;;;;;;6.80;4.45;;;;;;;13.31;37.90;100071.78;1632270;85;21726;-59
2021/04/12 11:25:09;;;;;;;8.93;4.42;;;;;;;13.27;38.71;100071.06;1630760;85;21636;-60
2021/04/12 11:28:06;;;;;;;10.10;3.30;;;;;;;13.28;39.74;100070.11;1630624;85;21600;-60
2021/04/12 11:30:51;;;;;;;10.15;3.47;;;;;;;13.29;40.09;100069.16;1632143;85;21153;-60
2021/04/12 11:33:41;;;;;;;6.42;3.65;;;;;;;13.30;40.54;100060.09;1607426;87;21163;-59
2021/04/12 11:36:42;;;;;;;13.45;4.17;;;;;;;13.31;42.04;100069.08;1628589;85;21133;-60
2021/04/12 11:39:16;;;;;;;8.28;3.65;;;;;;;13.24;43.29;100066.72;1630112;85;21264;-60
2021/04/12 11:41:48;;;;;;;;;;;;;;;13.20;44.73;100062.89;1632252;85;21177;-62
2021/04/12 11:44:31;;;;;;;13.15;6.33;;;;;;;13.17;45.66;100063.95;1629922;85;20752;-62
2021/04/12 11:47:27;;;;;;;10.32;5.85;;;;;;;13.12;45.94;100064.63;1630103;85;21007;-62
2021/04/12 11:50:06;;;;;;;11.78;6.97;;;;;;;13.08;46.09;100063.06;1605136;87;21787;-59
2021/04/12 11:52:56;;;;;;;14.47;7.22;;;;;;;13.05;46.37;100062.34;1631942;85;21374;-59
2021/04/12 11:55:49;;;;;;;8.85;4.45;;;;;;;13.02;46.49;100063.36;1611551;85;22035;-59
2021/04/12 11:58:45;;;;;;;9.98;5.87;;;;;;;12.96;47.10;100066.88;1603962;87;21186;-59
2021/04/12 12:01:43;;;;;;;27.58;16.40;;;;;;;12.84;47.41;100061.16;1597414;87;21133;-60
2021/04/12 12:04:45;;;;;;;21.48;11.68;;;;;;;12.77;48.36;100061.56;1567325;87;21572;-60
2021/04/12 12:07:28;;;;;;;21.37;12.43;;;;;;;12.68;49.68;100062.91;1628887;85;22668;-60
2021/04/12 12:10:16;;;;;;;27.13;14.20;;;;;;;12.58;51.00;100058.97;1627889;85;21220;-61
2021/04/12 12:13:05;;;;;;;17.25;10.63;;;;;;;12.52;51.91;100068.70;1628747;85;21192;-60
2021/04/12 12:16:21;;;;;;;18.60;13.30;;;;;;;12.43;52.74;100060.60;1630868;85;21200;-60
2021/04/12 12:18:58;;;;;;;30.80;17.03;;;;;;;12.34;53.76;100062.41;1624007;85;21177;-60
2021/04/12 12:21:42;;;;;;;24.37;14.87;;;;;;;12.22;54.42;100056.78;1628848;85;21865;-60
2021/04/12 12:24:28;;;;;;;76.82;42.35;;;;;;;12.19;54.92;100058.27;1630215;85;21229;-60
2021/04/12 12:27:37;;;;;;;28.33;17.67;;;;;;;12.14;55.60;100058.52;1626989;85;21780;-61
2021/04/12 12:30:16;;;;;;;33.43;19.27;;;;;;;12.07;56.41;100051.68;1715568;80;21191;-60
2021/04/12 12:33:02;;;;;;;22.53;15.17;;;;;;;11.99;56.76;100049.33;1742828;79;21198;-61
2021/04/12 12:35:51;;;;;;;13.63;10.60;;;;;;;11.97;57.11;100045.86;1746406;79;21739;-59
2021/04/12 12:38:47;;;;;;;12.67;10.03;;;;;;;11.90;57.43;100040.37;1745729;79;21209;-60
2021/04/12 12:41:21;;;;;;;13.47;11.30;;;;;;;11.84;57.81;100046.04;1745781;80;21182;-60
2021/04/12 12:43:59;;;;;;;18.70;11.38;;;;;;;11.74;57.95;100044.70;1737342;80;21174;-59
2021/04/12 12:46:29;;;;;;;19.67;13.87;;;;;;;11.64;58.63;100046.12;1718871;80;21202;-59
2021/04/12 12:49:27;;;;;;;21.73;13.90;;;;;;;11.57;58.81;100056.80;1743183;80;22100;-59
2021/04/12 12:51:57;;;;;;;20.52;14.83;;;;;;;11.55;59.11;100051.95;1746231;80;21431;-59
2021/04/12 12:54:31;;;;;;;18.93;14.10;;;;;;;11.51;59.38;100055.72;1740950;80;21131;-59
2021/04/12 12:57:08;;;;;;;16.53;12.30;;;;;;;11.46;60.13;100058.64;1739573;80;21158;-59
2021/04/12 12:59:39;;;;;;;18.87;13.33;;;;;;;11.33;61.55;100058.33;1739982;80;21245;-59
2021/04/12 13:02:23;;;;;;;19.73;13.13;;;;;;;11.19;62.08;100061.27;1747450;80;21391;-59
2021/04/12 13:05:06;;;;;;;20.68;12.43;;;;;;;11.09;62.83;100057.23;1721595;80;21742;-59
2021/04/12 13:07:34;;;;;;;15.67;12.33;;;;;;;11.06;63.09;100056.89;1743699;80;21209;-59
2021/04/12 13:10:25;;;;;;;15.80;12.77;;;;;;;11.06;63.39;100046.12;1745591;80;21222;-59
2021/04/12 13:12:53;;;;;;;24.13;14.17;;;;;;;11.06;63.73;100047.46;1740346;80;21182;-58
2021/04/12 13:15:35;;;;;;;21.90;14.97;;;;;;;11.03;64.14;100052.13;1740508;80;21481;-59
2021/04/12 13:18:16;;;;;;;20.50;15.03;;;;;;;11.00;64.33;100050.44;1742099;80;21122;-58
2021/04/12 13:20:46;;;;;;;27.03;14.93;;;;;;;11.00;64.61;100058.05;1745115;80;21509;-59
2021/04/12 13:23:30;;;;;;;22.67;15.23;;;;;;;11.02;64.78;100055.30;1745063;80;21550;-59
2021/04/12 13:25:58;;;;;;;23.83;15.47;;;;;;;11.05;64.92;100051.13;1723035;80;21624;-59